Time;durP1;ratioP1;P1;durP2;ratioP2;P2;SDS_P1;SDS_P2;PMS_P1;PMS_P2;Temp;Humidity;BMP_temperature;BMP_pressure;BME280_temperature;BME280_humidity;BME280_pressure;Samples;Min_cycle;Max_cycle;Signal;HPM_P1;HPM_P2
2023/07/29 00:01:54;;;;;;;3.20;1.70;;;;;;;17.61;73.48;98282.89;102604;1292;600286;-22
2023/07/29 00:04:22;;;;;;;2.60;1.70;;;;;;;17.38;73.84;98278.43;104886;1267;61126;-22
2023/07/29 00:06:49;;;;;;;2.10;1.90;;;;;;;17.14;74.88;98278.24;104831;1267;61066;-22
2023/07/29 00:09:17;;;;;;;4.10;1.80;;;;;;;16.92;75.55;98279.73;104804;1272;72207;-22
2023/07/29 00:11:45;;;;;;;2.30;1.70;;;;;;;16.74;76.30;98277.48;104821;1272;73652;-22
2023/07/29 00:14:13;;;;;;;2.00;1.60;;;;;;;17.05;75.88;98273.92;105350;1260;72712;-22
2023/07/29 00:16:41;;;;;;;2.50;1.60;;;;;;;17.41;74.40;98274.41;103646;1257;2691875;-22
2023/07/29 00:19:08;;;;;;;4.90;1.60;;;;;;;17.44;73.89;98273.05;105601;1261;61074;-22
2023/07/29 00:29:15;;;;;;;4.70;1.80;;;;;;;16.50;77.64;98278.20;102594;1292;600055;-22
2023/07/29 00:31:43;;;;;;;4.20;1.80;;;;;;;16.35;78.13;98279.85;104805;1267;61079;-22
2023/07/29 00:34:17;;;;;;;2.80;1.80;;;;;;;16.73;77.52;98277.65;104801;1267;61099;-22
2023/07/29 00:36:45;;;;;;;;;;;;;;;17.10;75.66;98269.85;104804;1268;72028;-22
2023/07/29 00:39:13;;;;;;;2.50;1.70;;;;;;;17.04;75.53;98266.64;104577;1266;74394;-22
2023/07/29 00:49:26;;;;;;;2.90;1.50;;;;;;;16.18;79.14;98269.06;102858;1290;600303;-22
2023/07/29 00:51:54;;;;;;;3.30;1.80;;;;;;;16.65;77.62;98268.44;104847;1264;61152;-22
2023/07/29 00:54:24;;;;;;;4.00;2.30;;;;;;;16.93;75.62;98266.85;104858;1272;61094;-23
2023/07/29 00:56:52;;;;;;;3.00;1.80;;;;;;;16.78;75.76;98263.20;104824;1264;72221;-23
2023/07/29 00:59:20;;;;;;;3.20;1.80;;;;;;;16.42;77.28;98260.85;104830;1270;73185;-23
2023/07/29 01:01:48;;;;;;;3.60;2.00;;;;;;;16.23;77.26;98262.88;104796;1267;72668;-23
2023/07/29 01:04:15;;;;;;;2.70;1.30;;;;;;;16.05;77.82;98258.86;103124;1263;2811960;-23
2023/07/29 01:06:53;;;;;;;5.00;1.70;;;;;;;16.34;77.94;98260.55;105581;1258;61197;-23
2023/07/29 01:09:41;;;;;;;2.50;1.80;;;;;;;16.65;76.71;98256.50;105499;1258;70992;-23
2023/07/29 01:12:24;;;;;;;5.10;2.10;;;;;;;16.49;76.88;98256.11;105493;1257;73379;-23
2023/07/29 01:15:10;;;;;;;4.00;2.20;;;;;;;16.23;77.53;98256.37;105427;1258;71379;-23
2023/07/29 01:17:59;;;;;;;5.20;2.20;;;;;;;15.93;79.06;98250.61;105650;1263;61214;-23
2023/07/29 01:20:27;;;;;;;3.30;1.60;;;;;;;15.78;79.89;98246.52;105640;1262;61761;-23
2023/07/29 01:22:55;;;;;;;4.60;2.20;;;;;;;16.10;79.24;98248.67;105643;1257;71786;-23
2023/07/29 01:25:23;;;;;;;3.90;2.10;;;;;;;16.25;78.06;98245.66;105724;1260;73287;-23
2023/07/29 01:27:51;;;;;;;4.60;2.00;;;;;;;16.13;78.50;98246.50;105589;1255;71405;-23
2023/07/29 01:38:13;;;;;;;5.20;1.70;;;;;;;15.92;80.04;98247.71;102627;1294;600248;-22
2023/07/29 01:40:41;;;;;;;2.80;1.70;;;;;;;16.08;78.46;98250.71;104795;1267;61112;-22
2023/07/29 01:50:47;;;;;;;3.00;2.10;;;;;;;15.42;81.37;98254.06;102654;1296;600206;-25
2023/07/29 02:00:52;;;;;;;3.70;2.20;;;;;;;15.78;79.13;98251.90;102688;1292;600295;-22
2023/07/29 02:10:59;;;;;;;3.20;1.80;;;;;;;16.01;78.49;98255.58;102741;1290;600093;-22
2023/07/29 02:20:07;;;;;;;4.80;2.20;;;;;;;15.43;79.58;98252.98;102682;1295;600207;-22
2023/07/29 02:22:35;;;;;;;2.10;1.60;;;;;;;15.19;80.78;98249.48;104862;1271;61200;-22
2023/07/29 02:25:03;;;;;;;3.40;1.90;;;;;;;15.55;80.13;98246.36;104895;1266;61081;-22
2023/07/29 02:27:32;;;;;;;3.60;2.10;;;;;;;15.86;78.48;98241.91;104687;1266;70978;-22
2023/07/29 02:37:37;;;;;;;2.40;1.60;;;;;;;15.26;80.47;98243.48;102604;1299;600079;-22
2023/07/29 02:40:06;;;;;;;4.50;1.90;;;;;;;15.58;79.72;98247.23;104787;1272;61264;-22
2023/07/29 02:42:33;;;;;;;3.90;2.00;;;;;;;15.86;78.06;98247.23;104835;1273;61291;-22
2023/07/29 02:45:01;;;;;;;5.00;1.80;;;;;;;15.81;77.99;98248.14;104797;1273;71041;-22
2023/07/29 02:47:29;;;;;;;5.10;2.30;;;;;;;15.56;78.54;98250.41;105307;1265;73469;-22
2023/07/29 02:49:57;;;;;;;3.60;2.00;;;;;;;15.37;78.99;98252.28;109065;1258;72653;-23
2023/07/29 02:52:25;;;;;;;3.50;1.60;;;;;;;15.23;79.59;98255.59;106937;1256;2867174;-22
2023/07/29 02:54:52;;;;;;;3.10;2.00;;;;;;;15.65;78.95;98257.60;109118;1257;60013;-23
2023/07/29 02:57:20;;;;;;;4.30;2.00;;;;;;;16.13;77.09;98262.58;109245;1257;70716;-23
2023/07/29 02:59:47;;;;;;;4.90;1.90;;;;;;;16.19;76.31;98263.34;109130;1257;73174;-23
2023/07/29 03:02:16;;;;;;;3.50;2.40;;;;;;;16.20;75.99;98260.38;109239;1257;72743;-23
2023/07/29 03:04:43;;;;;;;2.90;2.00;;;;;;;16.10;76.14;98255.34;109127;1256;59300;-23
2023/07/29 03:07:11;;;;;;;5.40;2.30;;;;;;;15.99;76.44;98260.52;109251;1257;58821;-23
2023/07/29 03:09:41;;;;;;;2.50;1.50;;;;;;;15.86;76.96;98262.71;109135;1256;71758;-23
2023/07/29 03:12:09;;;;;;;2.90;1.80;;;;;;;16.24;76.94;98267.13;109138;1257;74386;-23
2023/07/29 03:14:36;;;;;;;5.00;1.70;;;;;;;16.60;75.50;98264.13;109230;1256;72696;-23
2023/07/29 03:17:04;;;;;;;3.50;2.40;;;;;;;16.54;75.10;98264.65;109128;1257;60137;-23
2023/07/29 03:19:32;;;;;;;4.40;1.80;;;;;;;16.37;75.52;98264.68;109406;1257;58799;-23
2023/07/29 03:21:59;;;;;;;3.70;1.80;;;;;;;16.12;76.34;98260.86;109136;1256;73065;-23
2023/07/29 03:24:28;;;;;;;3.60;1.80;;;;;;;15.91;76.90;98257.77;109167;1257;74291;-23
2023/07/29 03:26:56;;;;;;;4.10;1.50;;;;;;;15.85;77.52;98259.66;109361;1257;71723;-23
2023/07/29 03:29:23;;;;;;;3.40;1.90;;;;;;;16.29;76.88;98258.80;109202;1256;58912;-23
2023/07/29 03:31:51;;;;;;;4.70;1.90;;;;;;;16.81;75.26;98253.61;109246;1256;58777;-23
2023/07/29 03:34:19;;;;;;;2.90;2.20;;;;;;;16.96;73.94;98251.41;109097;1256;71823;-23
2023/07/29 03:36:51;;;;;;;3.70;1.80;;;;;;;17.14;73.34;98254.23;109111;1256;73183;-23
2023/07/29 03:39:19;;;;;;;4.00;2.20;;;;;;;17.20;72.78;98257.98;109081;1257;72782;-23
2023/07/29 03:41:46;;;;;;;2.90;2.00;;;;;;;17.21;72.80;98260.71;109246;1257;59088;-23
2023/07/29 03:44:14;;;;;;;5.80;1.60;;;;;;;17.30;72.70;98257.15;109140;1256;58679;-23
2023/07/29 03:46:41;;;;;;;2.90;2.00;;;;;;;17.78;71.88;98252.18;109117;1257;73033;-22
2023/07/29 03:49:09;;;;;;;4.60;2.10;;;;;;;18.37;70.06;98248.41;109059;1257;74487;-23
2023/07/29 03:51:37;;;;;;;2.70;2.00;;;;;;;18.54;68.69;98247.96;109109;1257;72834;-22
2023/07/29 03:54:04;;;;;;;3.40;2.00;;;;;;;18.68;68.27;98245.19;109070;1257;58811;-22
2023/07/29 03:56:32;;;;;;;3.90;2.20;;;;;;;18.64;68.20;98251.54;109153;1257;60059;-23
2023/07/29 03:59:04;;;;;;;2.70;2.10;;;;;;;18.40;68.80;98247.86;109095;1257;73142;-23
2023/07/29 04:01:31;;;;;;;6.10;2.10;;;;;;;18.23;68.94;98247.94;108992;1257;73082;-23
2023/07/29 04:03:59;;;;;;;6.10;2.30;;;;;;;18.17;69.33;98244.97;109081;1257;72765;-23
2023/07/29 04:06:27;;;;;;;5.40;2.30;;;;;;;18.15;69.42;98245.90;109102;1257;59137;-22
2023/07/29 04:08:55;;;;;;;3.50;1.50;;;;;;;18.22;69.54;98243.42;109099;1257;60128;-22
2023/07/29 04:11:23;;;;;;;2.60;1.60;;;;;;;18.86;68.24;98249.02;109128;1261;71857;-23
2023/07/29 04:13:51;;;;;;;2.10;1.80;;;;;;;19.22;66.77;98248.31;109106;1257;74364;-23
2023/07/29 04:16:18;;;;;;;4.10;2.00;;;;;;;19.40;66.28;98243.77;109187;1256;72666;-23
2023/07/29 04:18:46;;;;;;;3.20;2.20;;;;;;;19.33;66.34;98244.10;109076;1257;58990;-23
2023/07/29 04:21:13;;;;;;;5.50;2.30;;;;;;;19.50;65.77;98243.86;109097;1260;60075;-23
2023/07/29 04:23:41;;;;;;;3.70;2.00;;;;;;;19.45;65.74;98241.75;109097;1257;72762;-23
2023/07/29 04:26:08;;;;;;;2.90;1.90;;;;;;;19.44;66.21;98247.77;109219;1256;74297;-22
2023/07/29 04:28:36;;;;;;;4.10;2.00;;;;;;;19.39;66.54;98250.60;109101;1257;72691;-23
2023/07/29 04:31:04;;;;;;;3.50;2.40;;;;;;;19.39;66.37;98249.83;109023;1257;60158;-23
2023/07/29 04:33:32;;;;;;;3.20;2.70;;;;;;;19.35;67.23;98256.11;109060;1257;60062;-22
2023/07/29 04:36:04;;;;;;;2.90;2.30;;;;;;;19.56;66.79;98251.13;109125;1257;71838;-22
2023/07/29 04:38:35;;;;;;;5.30;2.30;;;;;;;19.76;65.89;98254.63;109039;1257;73048;-23
2023/07/29 04:41:02;;;;;;;7.20;2.70;;;;;;;19.98;65.88;98259.23;108990;1257;71901;-23
2023/07/29 04:43:31;;;;;;;3.60;2.20;;;;;;;20.08;65.67;98258.27;109130;1257;60086;-22
2023/07/29 04:45:58;;;;;;;3.10;2.40;;;;;;;20.04;65.36;98255.88;108916;1257;58746;-23
2023/07/29 04:48:27;;;;;;;4.00;2.10;;;;;;;19.94;64.87;98257.73;109093;1257;73026;-22
2023/07/29 04:50:54;;;;;;;4.80;2.40;;;;;;;19.91;65.21;98261.86;109027;1258;74286;-23
2023/07/29 04:53:22;;;;;;;4.70;2.20;;;;;;;20.05;65.63;98265.60;109027;1257;71446;-23
2023/07/29 04:55:49;;;;;;;4.30;1.80;;;;;;;20.16;65.05;98259.23;109056;1257;58771;-23
2023/07/29 04:58:17;;;;;;;10.00;2.70;;;;;;;20.22;64.69;98260.00;109054;1257;58734;-23
2023/07/29 05:00:47;;;;;;;2.70;2.00;;;;;;;20.26;64.82;98266.61;109021;1257;73028;-23
2023/07/29 05:03:14;;;;;;;3.20;2.20;;;;;;;20.18;65.13;98264.16;109035;1257;74469;-23
2023/07/29 05:05:42;;;;;;;1.90;1.70;;;;;;;19.91;65.68;98269.46;109034;1257;72692;-23
2023/07/29 05:08:10;;;;;;;2.30;1.80;;;;;;;19.74;66.70;98265.72;109026;1257;60051;-23
2023/07/29 05:10:37;;;;;;;2.90;2.10;;;;;;;19.60;67.41;98267.71;109114;1257;58816;-23
2023/07/29 05:13:05;;;;;;;3.10;1.90;;;;;;;19.64;67.40;98267.64;109107;1257;73010;-23
2023/07/29 05:15:32;;;;;;;3.60;1.90;;;;;;;19.81;67.28;98274.45;109104;1257;74273;-23
2023/07/29 05:18:00;;;;;;;2.50;2.10;;;;;;;20.00;66.37;98273.94;109094;1257;71392;-23
2023/07/29 05:20:28;;;;;;;3.70;2.10;;;;;;;20.13;66.77;98279.15;109009;1257;58950;-23
2023/07/29 05:22:55;;;;;;;4.60;2.00;;;;;;;20.19;66.05;98274.52;109156;1257;58798;-23
2023/07/29 05:25:23;;;;;;;2.50;2.00;;;;;;;20.23;66.07;98273.26;109035;1257;73035;-23
2023/07/29 05:27:51;;;;;;;3.60;2.00;;;;;;;20.34;66.03;98271.30;109105;1257;73017;-23
2023/07/29 05:30:18;;;;;;;2.90;2.00;;;;;;;20.33;65.83;98271.95;108994;1257;71393;-23
2023/07/29 05:32:46;;;;;;;4.60;2.00;;;;;;;20.36;66.62;98274.71;109081;1257;60079;-23
2023/07/29 05:35:14;;;;;;;2.60;2.20;;;;;;;20.44;65.96;98277.87;109102;1257;59099;-23
2023/07/29 05:37:42;;;;;;;3.10;2.00;;;;;;;20.53;66.67;98279.10;108958;1257;71756;-23
2023/07/29 05:40:09;;;;;;;3.20;1.90;;;;;;;20.55;65.96;98279.05;108992;1257;74374;-23
2023/07/29 05:42:37;;;;;;;3.30;2.10;;;;;;;20.46;66.34;98279.73;108958;1257;71436;-23
2023/07/29 05:45:06;;;;;;;2.70;2.00;;;;;;;20.39;66.75;98284.71;109103;1258;59980;-23
2023/07/29 05:47:34;;;;;;;5.80;2.10;;;;;;;20.30;67.17;98284.69;108881;1258;60684;-23
2023/07/29 05:50:04;;;;;;;4.60;2.50;;;;;;;20.27;67.95;98284.98;109003;1257;72908;-23
2023/07/29 05:52:32;;;;;;;15.60;2.40;;;;;;;20.25;68.00;98285.53;108989;1257;74390;-23
2023/07/29 05:55:00;;;;;;;3.20;2.20;;;;;;;20.21;68.43;98288.18;109066;1257;71396;-23
2023/07/29 05:57:28;;;;;;;3.70;2.10;;;;;;;20.21;68.98;98292.73;108970;1257;59257;-23
2023/07/29 05:59:56;;;;;;;4.10;1.90;;;;;;;20.22;69.19;98291.02;109019;1257;60008;-23
2023/07/29 06:02:23;;;;;;;5.00;1.90;;;;;;;20.59;67.46;98289.61;109116;1257;73129;-23
2023/07/29 06:04:52;;;;;;;5.70;1.90;;;;;;;20.85;67.00;98291.34;108993;1257;73000;-23
2023/07/29 06:07:19;;;;;;;4.10;1.90;;;;;;;21.01;66.68;98292.12;108999;1257;72639;-23
2023/07/29 06:09:47;;;;;;;3.00;2.20;;;;;;;21.03;66.99;98295.52;108972;1260;60040;-23
2023/07/29 06:12:14;;;;;;;3.00;2.30;;;;;;;20.94;66.95;98291.95;109032;1257;59118;-23
2023/07/29 06:14:42;;;;;;;2.40;1.90;;;;;;;20.87;67.45;98297.77;109015;1257;73084;-23
2023/07/29 06:17:11;;;;;;;5.10;2.30;;;;;;;20.83;67.73;98294.36;108991;1257;73182;-23
2023/07/29 06:19:39;;;;;;;3.10;2.20;;;;;;;20.85;67.47;98292.15;109098;1260;72613;-23
2023/07/29 06:22:06;;;;;;;3.80;2.60;;;;;;;20.75;68.56;98296.00;109007;1257;58879;-23
2023/07/29 06:24:34;;;;;;;3.30;2.20;;;;;;;20.71;69.06;98295.85;109008;1261;60005;-23
2023/07/29 06:27:02;;;;;;;2.30;2.10;;;;;;;20.87;68.80;98297.63;109112;1257;73083;-23
2023/07/29 06:29:30;;;;;;;5.10;1.90;;;;;;;20.91;68.28;98295.66;109009;1258;73035;-23
2023/07/29 06:31:58;;;;;;;2.20;2.00;;;;;;;21.01;68.26;98301.12;108941;1260;71459;-23
2023/07/29 06:34:25;;;;;;;3.20;1.90;;;;;;;21.05;68.27;98305.20;108992;1259;58778;-23
2023/07/29 06:36:53;;;;;;;2.30;2.00;;;;;;;21.03;68.18;98301.18;109032;1259;60033;-23
2023/07/29 06:39:20;;;;;;;2.80;2.30;;;;;;;20.95;68.32;98307.02;109040;1259;73054;-23
2023/07/29 06:41:48;;;;;;;4.00;2.10;;;;;;;20.96;69.01;98302.85;109036;1258;74302;-23
2023/07/29 06:44:17;;;;;;;3.00;2.10;;;;;;;21.08;69.63;98310.04;108941;1259;72771;-23
2023/07/29 06:46:45;;;;;;;2.70;2.20;;;;;;;21.37;67.46;98308.94;108989;1259;58924;-23
2023/07/29 06:49:12;;;;;;;2.60;2.10;;;;;;;21.60;66.52;98306.67;109041;1259;58748;-23
2023/07/29 06:51:40;;;;;;;3.50;2.50;;;;;;;21.42;66.76;98312.89;109065;1258;72671;-24
2023/07/29 06:54:08;;;;;;;2.70;2.40;;;;;;;21.45;66.81;98314.71;109030;1259;74422;-23
2023/07/29 06:56:35;;;;;;;9.30;2.70;;;;;;;21.08;68.24;98312.97;109012;1259;72651;-23
2023/07/29 06:59:03;;;;;;;2.90;2.60;;;;;;;21.00;69.16;98320.17;108990;1259;58961;-23
2023/07/29 07:01:31;;;;;;;3.40;2.50;;;;;;;20.87;69.12;98323.67;108983;1258;60749;-23
2023/07/29 07:03:58;;;;;;;3.50;2.60;;;;;;;20.73;69.75;98324.05;109020;1259;72629;-23
2023/07/29 07:06:26;;;;;;;3.30;2.80;;;;;;;20.81;70.64;98329.40;108991;1259;72581;-23
2023/07/29 07:08:53;;;;;;;3.10;2.30;;;;;;;20.92;70.06;98330.87;108991;1258;72720;-23
2023/07/29 07:11:21;;;;;;;2.90;2.20;;;;;;;20.68;70.20;98323.39;108956;1259;59481;-22
2023/07/29 07:13:48;;;;;;;3.30;2.10;;;;;;;20.52;71.05;98327.30;109044;1259;59999;-22
2023/07/29 07:16:16;;;;;;;3.80;2.50;;;;;;;20.37;71.33;98327.95;109034;1258;73828;-22
2023/07/29 07:18:44;;;;;;;2.50;2.00;;;;;;;20.28;71.86;98330.95;109011;1260;74304;-22
2023/07/29 07:21:11;;;;;;;4.10;2.10;;;;;;;20.71;71.09;98329.33;108963;1259;71907;-23
2023/07/29 07:23:39;;;;;;;3.30;2.20;;;;;;;21.05;69.09;98327.52;109032;1259;58835;-22
2023/07/29 07:26:06;;;;;;;2.70;2.40;;;;;;;21.14;68.54;98328.27;108968;1259;60019;-23
2023/07/29 07:28:34;;;;;;;2.60;2.10;;;;;;;21.26;68.47;98318.45;109026;1259;73833;-23
2023/07/29 07:31:02;;;;;;;3.00;2.30;;;;;;;21.20;68.51;98321.48;108976;1258;74316;-23
2023/07/29 07:33:29;;;;;;;8.50;2.50;;;;;;;21.18;69.05;98326.68;108936;1259;72791;-24
2023/07/29 07:35:57;;;;;;;2.80;2.20;;;;;;;21.06;69.66;98330.52;108962;1259;58803;-23
2023/07/29 07:38:24;;;;;;;5.60;3.20;;;;;;;20.96;69.74;98330.04;109015;1258;60165;-23
2023/07/29 07:40:56;;;;;;;3.70;2.60;;;;;;;20.66;70.50;98334.77;108924;1260;73862;-23
2023/07/29 07:43:24;;;;;;;3.30;2.70;;;;;;;20.70;71.02;98334.96;108904;1260;74504;-23
2023/07/29 07:45:57;;;;;;;3.20;2.70;;;;;;;20.49;71.11;98336.67;108991;1259;72673;-24
2023/07/29 07:48:26;;;;;;;4.10;2.70;;;;;;;20.35;71.63;98337.07;108925;1265;58848;-23
2023/07/29 07:50:53;;;;;;;5.90;3.00;;;;;;;20.50;71.12;98335.98;108912;1259;60010;-23
2023/07/29 07:53:21;;;;;;;5.50;2.80;;;;;;;20.70;69.61;98329.62;108989;1259;73883;-23
2023/07/29 07:55:48;;;;;;;4.30;2.50;;;;;;;20.72;69.10;98325.46;109020;1259;73494;-23
2023/07/29 07:58:16;;;;;;;6.00;3.20;;;;;;;20.60;68.61;98324.60;108973;1259;72711;-23
2023/07/29 08:00:44;;;;;;;7.50;3.30;;;;;;;20.65;69.85;98329.92;108935;1260;58878;-23
2023/07/29 08:03:11;;;;;;;3.80;2.90;;;;;;;20.77;69.21;98327.77;108963;1259;60212;-23
2023/07/29 08:05:39;;;;;;;4.00;3.10;;;;;;;20.82;68.13;98322.35;109017;1259;73798;-23
2023/07/29 08:08:07;;;;;;;3.70;3.00;;;;;;;20.93;67.50;98318.08;109015;1259;72419;-23
2023/07/29 08:10:34;;;;;;;2.70;2.50;;;;;;;21.01;68.58;98318.73;109001;1259;72659;-23
2023/07/29 08:13:02;;;;;;;4.10;3.00;;;;;;;21.14;68.17;98318.44;108893;1260;58892;-23
2023/07/29 08:15:29;;;;;;;4.40;3.10;;;;;;;21.00;67.84;98325.38;109015;1259;60275;-23
2023/07/29 08:17:57;;;;;;;3.00;2.70;;;;;;;21.07;68.38;98315.86;109003;1260;73867;-23
2023/07/29 08:20:25;;;;;;;3.70;2.90;;;;;;;21.25;66.62;98313.20;109009;1259;74302;-23
2023/07/29 08:22:52;;;;;;;4.90;2.70;;;;;;;21.42;67.25;98309.47;108991;1259;72714;-23
2023/07/29 08:25:20;;;;;;;3.00;2.70;;;;;;;21.64;66.53;98312.27;108920;1259;58882;-23
2023/07/29 08:27:47;;;;;;;2.60;2.40;;;;;;;21.82;65.47;98313.70;108956;1260;60148;-23
2023/07/29 08:30:16;;;;;;;3.00;2.60;;;;;;;21.89;64.60;98310.38;108999;1259;73854;-23
2023/07/29 08:32:44;;;;;;;2.30;2.10;;;;;;;21.93;65.12;98308.55;108964;1260;74346;-23
2023/07/29 08:35:12;;;;;;;3.90;2.10;;;;;;;22.12;64.45;98306.70;108963;1260;72698;-23
2023/07/29 08:37:40;;;;;;;4.00;2.40;;;;;;;22.27;64.27;98305.83;108977;1259;60165;-23
2023/07/29 08:40:08;;;;;;;3.40;2.20;;;;;;;22.45;62.79;98305.70;108951;1259;58727;-23
2023/07/29 08:42:36;;;;;;;2.90;2.40;;;;;;;22.61;62.40;98305.81;108808;1260;72593;-23
2023/07/29 08:45:11;;;;;;;2.50;2.30;;;;;;;22.86;61.93;98305.48;108995;1260;74320;-23
2023/07/29 08:47:39;;;;;;;3.00;2.30;;;;;;;22.68;61.72;98308.39;108936;1260;71100;-23
2023/07/29 08:50:07;;;;;;;2.40;2.20;;;;;;;22.81;61.92;98309.39;108961;1259;59320;-23
2023/07/29 08:52:35;;;;;;;2.80;2.60;;;;;;;23.04;61.72;98312.81;108855;1260;60013;-23
2023/07/29 08:55:03;;;;;;;4.30;1.80;;;;;;;23.29;61.04;98316.67;108975;1260;72578;-24
2023/07/29 08:57:31;;;;;;;4.90;2.30;;;;;;;23.45;60.19;98309.59;108815;1260;74500;-23
2023/07/29 08:59:58;;;;;;;2.30;2.10;;;;;;;23.27;60.22;98315.70;108902;1260;72721;-22
2023/07/29 09:02:26;;;;;;;3.80;2.20;;;;;;;23.48;61.49;98316.67;108924;1260;58860;-23
2023/07/29 09:04:54;;;;;;;3.50;2.30;;;;;;;23.52;59.93;98314.66;109006;1260;58767;-23
2023/07/29 09:07:22;;;;;;;3.40;2.50;;;;;;;23.18;60.13;98320.95;108905;1259;72696;-23
2023/07/29 09:09:49;;;;;;;3.20;2.40;;;;;;;23.43;60.02;98316.52;108969;1259;73318;-23
2023/07/29 09:12:17;;;;;;;2.20;2.00;;;;;;;23.27;60.25;98317.15;108879;1260;72664;-23
2023/07/29 09:14:44;;;;;;;2.20;2.00;;;;;;;23.16;60.68;98320.98;108969;1260;58985;-23
2023/07/29 09:17:12;;;;;;;4.80;2.00;;;;;;;23.08;60.91;98322.10;108930;1259;58841;-23
2023/07/29 09:19:40;;;;;;;3.30;2.20;;;;;;;22.87;61.03;98322.06;108902;1260;73898;-23
2023/07/29 09:22:17;;;;;;;2.10;1.90;;;;;;;23.05;61.45;98319.73;108929;1259;73071;-23
2023/07/29 09:24:46;;;;;;;4.30;2.20;;;;;;;22.78;60.76;98325.95;108823;1260;72672;-23
2023/07/29 09:27:31;;;;;;;3.30;1.90;;;;;;;22.70;61.22;98326.29;108819;1259;60130;-23
2023/07/29 09:30:01;;;;;;;3.20;2.10;;;;;;;22.67;61.59;98327.46;108948;1260;60107;-23
2023/07/29 09:32:32;;;;;;;2.30;1.90;;;;;;;22.58;61.89;98332.34;108956;1260;73844;-23
2023/07/29 09:35:02;;;;;;;3.00;1.90;;;;;;;22.55;61.75;98329.19;108906;1260;72502;-23
2023/07/29 09:37:32;;;;;;;3.90;2.10;;;;;;;22.51;62.83;98339.00;108810;1261;72480;-23
2023/07/29 09:40:04;;;;;;;1.90;1.70;;;;;;;22.46;62.60;98342.52;108798;1264;58903;-23
2023/07/29 09:42:35;;;;;;;3.00;2.10;;;;;;;22.30;63.25;98342.55;108823;1260;61049;-23
2023/07/29 09:45:06;;;;;;;3.40;1.70;;;;;;;22.63;63.78;98345.75;108880;1260;73951;-23
2023/07/29 09:47:38;;;;;;;3.30;1.60;;;;;;;22.60;62.36;98345.10;108784;1260;74372;-22
2023/07/29 09:50:10;;;;;;;2.00;1.80;;;;;;;22.57;62.42;98346.34;108820;1260;72611;-23
2023/07/29 09:52:40;;;;;;;2.10;1.60;;;;;;;22.39;63.25;98344.84;108803;1260;60155;-23
2023/07/29 09:55:17;;;;;;;3.50;2.00;;;;;;;22.21;62.78;98349.64;108832;1260;59020;-23
2023/07/29 09:57:47;;;;;;;2.10;1.70;;;;;;;22.02;64.03;98357.00;108820;1260;73909;-23
2023/07/29 10:00:16;;;;;;;2.30;1.90;;;;;;;22.43;63.44;98355.37;108832;1260;74300;-23
2023/07/29 10:02:47;;;;;;;2.70;1.80;;;;;;;22.75;61.08;98352.73;108800;1260;72566;-23
2023/07/29 10:05:18;;;;;;;2.10;1.90;;;;;;;22.69;60.71;98358.30;108801;1260;60086;-23
2023/07/29 10:07:49;;;;;;;3.00;2.40;;;;;;;22.46;61.15;98354.57;108801;1260;59233;-23
2023/07/29 10:10:18;;;;;;;2.30;1.90;;;;;;;22.23;62.25;98361.02;108901;1260;72969;-23
2023/07/29 10:12:49;;;;;;;4.80;2.10;;;;;;;22.22;63.02;98367.91;108840;1260;73369;-23
2023/07/29 10:15:19;;;;;;;3.10;2.10;;;;;;;22.21;63.13;98369.16;108826;1260;72772;-23
2023/07/29 10:17:48;;;;;;;4.40;2.30;;;;;;;22.21;63.24;98369.52;108661;1263;59360;-23
2023/07/29 10:20:18;;;;;;;2.40;2.20;;;;;;;22.15;63.07;98366.88;108861;1260;58821;-23
2023/07/29 10:22:48;;;;;;;2.50;2.10;;;;;;;21.97;64.59;98370.38;108801;1261;74131;-23
2023/07/29 10:25:22;;;;;;;3.30;2.20;;;;;;;21.96;64.43;98366.14;108816;1260;74480;-23
2023/07/29 10:28:07;;;;;;;7.50;2.50;;;;;;;22.02;63.85;98370.38;108838;1260;72490;-23
2023/07/29 10:38:11;;;;;;;3.50;2.70;;;;;;;22.84;59.16;98348.30;102695;1295;599850;-22
2023/07/29 10:40:57;;;;;;;2.40;2.20;;;;;;;23.24;58.76;98358.64;104771;1267;61014;-22
2023/07/29 10:51:35;;;;;;;2.00;1.60;;;;;;;24.30;54.34;98357.11;102704;1291;600298;-22
2023/07/29 10:54:14;;;;;;;2.50;2.00;;;;;;;24.70;53.60;98357.66;104947;1264;61174;-22
2023/07/29 10:56:43;;;;;;;1.90;1.40;;;;;;;24.74;52.00;98351.20;104851;1264;61144;-22
2023/07/29 11:07:03;;;;;;;1.60;1.50;;;;;;;24.67;52.58;98363.35;102681;1292;600146;-22
2023/07/29 11:09:41;;;;;;;2.20;1.70;;;;;;;24.42;54.02;98370.32;104765;1269;61161;-22
2023/07/29 11:12:47;;;;;;;4.60;1.60;;;;;;;24.30;54.31;98365.00;104785;1266;61194;-23
2023/07/29 11:15:28;;;;;;;3.90;1.60;;;;;;;23.76;54.53;98369.25;104880;1266;71008;-23
2023/07/29 11:17:57;;;;;;;1.80;1.50;;;;;;;24.10;55.24;98368.79;104815;1270;74459;-23
2023/07/29 11:20:30;;;;;;;1.90;1.50;;;;;;;24.04;54.83;98358.30;102851;1263;2836821;-23
2023/07/29 11:22:59;;;;;;;2.20;1.80;;;;;;;24.01;54.91;98364.38;104892;1269;61139;-23
2023/07/29 11:25:28;;;;;;;2.80;1.90;;;;;;;24.26;54.13;98356.98;104918;1269;61136;-23
2023/07/29 11:27:57;;;;;;;1.60;1.50;;;;;;;24.22;54.22;98356.25;104872;1263;72687;-23
2023/07/29 11:30:29;;;;;;;1.50;1.40;;;;;;;23.67;54.20;98354.73;104903;1263;73092;-23
2023/07/29 11:32:58;;;;;;;1.50;1.30;;;;;;;23.17;55.26;98353.17;104945;1268;72638;-23
2023/07/29 11:35:25;;;;;;;1.60;1.40;;;;;;;22.93;56.94;98350.36;104897;1266;61060;-23
2023/07/29 11:37:54;;;;;;;1.60;1.40;;;;;;;22.95;57.53;98351.52;104893;1268;61696;-23
2023/07/29 11:40:23;;;;;;;2.10;1.50;;;;;;;23.44;57.18;98350.57;104887;1264;71934;-23
2023/07/29 11:42:51;;;;;;;3.20;1.20;;;;;;;23.96;54.91;98343.79;104941;1271;72775;-23
2023/07/29 11:45:20;;;;;;;1.30;1.20;;;;;;;24.23;52.33;98345.64;104908;1263;72695;-23
2023/07/29 11:47:50;;;;;;;1.80;1.40;;;;;;;24.28;53.12;98345.36;104889;1263;61253;-23
2023/07/29 11:50:18;;;;;;;1.60;1.20;;;;;;;24.35;53.33;98348.14;104960;1269;61168;-23
2023/07/29 11:52:46;;;;;;;2.10;1.10;;;;;;;24.48;51.48;98343.00;104996;1268;71872;-23
2023/07/29 11:55:14;;;;;;;2.70;1.50;;;;;;;24.17;52.18;98346.77;105021;1263;73285;-23
2023/07/29 11:57:43;;;;;;;1.40;0.90;;;;;;;23.63;53.37;98345.10;105148;1268;72745;-23
2023/07/29 12:00:11;;;;;;;13.50;1.80;;;;;;;23.29;54.27;98342.69;105122;1263;61176;-23
2023/07/29 12:02:41;;;;;;;1.70;1.30;;;;;;;23.20;55.15;98344.80;104902;1263;61220;-23
2023/07/29 12:05:09;;;;;;;3.80;1.20;;;;;;;23.64;54.77;98335.36;104898;1271;71782;-23
2023/07/29 12:07:42;;;;;;;5.80;1.20;;;;;;;23.93;52.22;98332.43;105009;1266;74330;-23
2023/07/29 12:10:10;;;;;;;2.20;0.80;;;;;;;24.31;49.94;98328.80;104830;1265;72754;-23
2023/07/29 12:12:48;;;;;;;1.40;1.00;;;;;;;24.38;48.98;98324.25;104901;1269;61192;-23
2023/07/29 12:15:25;;;;;;;1.20;1.00;;;;;;;24.53;48.69;98329.64;105730;1258;61140;-23
2023/07/29 12:17:56;;;;;;;1.50;0.90;;;;;;;24.36;49.07;98331.51;105714;1260;73046;-23
2023/07/29 12:20:25;;;;;;;2.00;1.10;;;;;;;24.43;49.81;98333.78;105748;1259;72979;-23
2023/07/29 12:22:57;;;;;;;1.20;1.10;;;;;;;24.64;48.17;98328.04;105675;1255;72654;-23
2023/07/29 12:25:27;;;;;;;0.70;0.70;;;;;;;24.79;47.87;98325.11;105681;1258;61020;-23
2023/07/29 12:27:54;;;;;;;1.90;1.10;;;;;;;24.90;48.17;98328.69;105711;1254;61069;-22
2023/07/29 12:30:23;;;;;;;1.10;1.00;;;;;;;24.82;48.29;98331.10;105698;1259;73044;-23
2023/07/29 12:32:50;;;;;;;1.30;1.20;;;;;;;24.50;48.30;98333.30;105725;1258;74337;-23
2023/07/29 12:35:18;;;;;;;2.50;1.20;;;;;;;24.19;49.57;98338.95;105737;1253;71734;-23
2023/07/29 12:37:46;;;;;;;1.60;1.10;;;;;;;24.01;50.39;98338.16;105634;1257;61134;-23
2023/07/29 12:40:26;;;;;;;1.50;1.20;;;;;;;23.99;51.17;98340.55;105725;1252;61810;-23
2023/07/29 12:42:54;;;;;;;1.30;0.90;;;;;;;23.81;50.37;98336.36;105577;1253;73015;-23
2023/07/29 12:45:28;;;;;;;1.30;1.10;;;;;;;23.74;50.52;98345.85;105525;1259;73162;-23
2023/07/29 12:47:56;;;;;;;1.20;1.10;;;;;;;24.05;49.79;98345.13;105495;1259;72714;-23
2023/07/29 12:50:24;;;;;;;1.70;1.30;;;;;;;24.26;49.29;98341.83;105801;1257;61164;-23
2023/07/29 12:52:51;;;;;;;1.50;1.20;;;;;;;24.52;49.42;98338.70;105735;1257;61169;-23
2023/07/29 12:55:19;;;;;;;4.80;1.20;;;;;;;24.54;49.28;98339.55;105840;1254;71834;-23
2023/07/29 12:57:50;;;;;;;1.10;1.00;;;;;;;24.49;50.53;98340.88;105712;1253;74300;-23